Time;durP1;ratioP1;P1;durP2;ratioP2;P2;SDS_P1;SDS_P2;PMS_P1;PMS_P2;Temp;Humidity;BMP_temperature;BMP_pressure;BME280_temperature;BME280_humidity;BME280_pressure;Samples;Min_cycle;Max_cycle;Signal;HPM_P1;HPM_P2
2021/04/25 00:00:21;;;;;;;3.43;2.00;;;;;;;-1.17;84.08;101679.94;4955543;28;20575;-79
2021/04/25 00:02:48;;;;;;;4.70;2.20;;;;;;;-1.26;84.09;101674.34;4942223;28;20101;-80
2021/04/25 00:05:16;;;;;;;3.67;1.73;;;;;;;-1.28;85.01;101682.84;4957316;28;20043;-81
2021/04/25 00:07:43;;;;;;;3.50;2.00;;;;;;;-1.24;84.02;101675.28;4957201;28;20038;-80
2021/04/25 00:10:10;;;;;;;2.80;1.90;;;;;;;-1.32;85.27;101675.78;4956791;28;20073;-80
2021/04/25 00:12:40;;;;;;;3.23;2.30;;;;;;;-1.30;84.92;101674.13;4968466;28;20043;-80
2021/04/25 00:15:09;;;;;;;3.60;1.93;;;;;;;-1.43;85.61;101672.69;4940483;28;20053;-80
2021/04/25 00:17:38;;;;;;;2.27;1.40;;;;;;;-1.45;85.66;101663.97;4955041;28;20055;-81
2021/04/25 00:20:07;;;;;;;3.10;2.10;;;;;;;-1.51;85.69;101664.59;4956789;28;20419;-81
2021/04/25 00:22:33;;;;;;;4.63;1.90;;;;;;;-1.39;85.65;101665.97;4956691;28;20408;-81
2021/04/25 00:24:59;;;;;;;2.90;1.87;;;;;;;-1.25;85.90;101664.88;4959467;28;20035;-81
2021/04/25 00:27:27;;;;;;;3.20;2.10;;;;;;;-1.28;85.45;101664.72;4972586;28;20045;-80
2021/04/25 00:29:53;;;;;;;3.87;1.90;;;;;;;-1.57;86.75;101684.16;4935692;29;20531;-80
2021/04/25 00:32:19;;;;;;;3.43;1.80;;;;;;;-1.78;86.57;101686.66;4930881;28;20050;-81
2021/04/25 00:34:45;;;;;;;5.10;2.50;;;;;;;-1.88;87.49;101687.06;4949990;29;20043;-81
2021/04/25 00:37:12;;;;;;;4.33;2.10;;;;;;;-1.89;87.72;101686.19;4962213;28;20045;-80
2021/04/25 00:39:38;;;;;;;3.90;2.20;;;;;;;-2.08;88.72;101680.97;4970907;28;20050;-80
2021/04/25 00:42:05;;;;;;;4.03;2.23;;;;;;;-2.16;89.65;101688.38;4939408;28;20053;-80
2021/04/25 00:44:31;;;;;;;3.80;2.13;;;;;;;-2.18;89.83;101677.06;4970166;28;20411;-80
2021/04/25 00:46:58;;;;;;;3.47;2.10;;;;;;;-2.16;89.19;101682.31;4970606;28;20056;-79
2021/04/25 00:49:24;;;;;;;3.50;2.30;;;;;;;-2.14;88.87;101668.63;4954725;28;20078;-80
2021/04/25 00:51:50;;;;;;;4.37;2.47;;;;;;;-1.84;88.29;101676.94;4953722;28;20624;-80
2021/04/25 00:54:17;;;;;;;3.83;2.17;;;;;;;-1.82;87.88;101674.41;4938461;28;20586;-80
2021/04/25 00:56:43;;;;;;;5.43;2.70;;;;;;;-1.90;88.24;101676.63;4951284;28;20047;-80
2021/04/25 00:59:09;;;;;;;4.03;2.13;;;;;;;-2.03;88.20;101671.69;4938618;28;20047;-80
2021/04/25 01:01:35;;;;;;;3.43;2.00;;;;;;;-2.11;89.15;101676.50;4954742;28;20055;-80
2021/04/25 01:04:01;;;;;;;4.63;2.60;;;;;;;-2.10;89.50;101672.22;4954145;28;20137;-80
2021/04/25 01:06:27;;;;;;;3.60;2.20;;;;;;;-2.02;88.89;101673.47;4953520;28;20046;-80
2021/04/25 01:08:53;;;;;;;3.03;1.90;;;;;;;-1.92;88.23;101675.69;4954296;28;20467;-80
2021/04/25 01:11:20;;;;;;;4.03;2.83;;;;;;;-1.88;88.45;101680.19;4954686;28;20090;-80
2021/04/25 01:13:50;;;;;;;3.80;2.20;;;;;;;-1.90;88.53;101667.97;4954449;28;20226;-80
2021/04/25 01:16:18;;;;;;;4.27;2.50;;;;;;;-1.78;88.34;101668.53;4954067;28;20175;-81
2021/04/25 01:18:44;;;;;;;3.63;2.20;;;;;;;-1.78;87.85;101666.81;4938709;28;20043;-81
2021/04/25 01:21:10;;;;;;;2.63;1.97;;;;;;;-1.85;88.98;101666.47;4953045;28;20054;-80
2021/04/25 01:23:37;;;;;;;4.40;2.37;;;;;;;-1.77;90.28;101671.19;4937848;28;20452;-81
2021/04/25 01:26:03;;;;;;;4.57;2.20;;;;;;;-1.78;89.43;101664.22;4970102;28;20055;-80
2021/04/25 01:28:29;;;;;;;3.17;2.27;;;;;;;-1.82;89.88;101679.59;4953733;28;20043;-80
2021/04/25 01:30:56;;;;;;;4.77;2.13;;;;;;;-1.78;90.20;101677.19;4942035;28;20395;-81
2021/04/25 01:33:23;;;;;;;4.20;2.07;;;;;;;-1.64;88.99;101680.41;4937991;28;20046;-81
2021/04/25 01:35:51;;;;;;;3.77;1.93;;;;;;;-1.52;89.34;101678.34;4937772;28;20137;-80
2021/04/25 01:38:17;;;;;;;4.03;2.30;;;;;;;-1.59;88.97;101665.97;4938643;28;20053;-80
2021/04/25 01:40:43;;;;;;;4.97;2.60;;;;;;;-1.49;88.68;101675.03;4937878;28;20046;-81
2021/04/25 01:43:11;;;;;;;3.67;2.67;;;;;;;-1.41;87.83;101673.66;4954267;28;20523;-81
2021/04/25 01:45:37;;;;;;;4.00;2.30;;;;;;;-1.44;88.40;101669.22;4954238;28;20118;-80
2021/04/25 01:48:05;;;;;;;3.50;2.17;;;;;;;-1.49;89.36;101681.09;4954119;28;20097;-81
2021/04/25 01:50:32;;;;;;;5.93;2.57;;;;;;;-1.48;89.26;101676.81;4938249;28;21361;-80
2021/04/25 01:52:59;;;;;;;3.30;2.00;;;;;;;-1.52;88.85;101675.75;4935056;29;20035;-79
2021/04/25 01:55:27;;;;;;;4.90;2.50;;;;;;;-1.56;89.65;101660.03;4969433;28;20531;-80
2021/04/25 01:57:53;;;;;;;3.67;1.73;;;;;;;-1.54;90.58;101673.94;4952275;28;20039;-80
2021/04/25 02:00:27;;;;;;;4.20;2.20;;;;;;;-1.29;89.41;101662.94;4937693;28;20046;-80
2021/04/25 02:02:54;;;;;;;2.80;1.93;;;;;;;-1.25;88.18;101663.16;4965353;28;20043;-79
2021/04/25 02:05:22;;;;;;;4.03;2.30;;;;;;;-1.32;88.78;101657.63;4949947;28;20298;-80
2021/04/25 02:07:50;;;;;;;3.67;1.90;;;;;;;-1.22;89.38;101665.88;4920939;28;20043;-80
2021/04/25 02:10:17;;;;;;;4.43;2.53;;;;;;;-1.17;88.62;101669.56;4935123;28;20051;-79
2021/04/25 02:12:43;;;;;;;3.27;2.00;;;;;;;-1.19;88.66;101665.09;4954242;28;20070;-81
2021/04/25 02:15:12;;;;;;;3.53;1.83;;;;;;;-1.11;88.48;101668.03;4951036;28;20404;-81
2021/04/25 02:17:41;;;;;;;2.13;1.80;;;;;;;-1.09;88.12;101666.38;4950097;28;20552;-80
2021/04/25 02:20:09;;;;;;;4.00;2.00;;;;;;;-1.21;88.44;101656.38;4946874;28;20139;-80
2021/04/25 02:22:36;;;;;;;3.67;2.10;;;;;;;-1.12;87.82;101664.56;4949445;29;20485;-81
2021/04/25 02:25:04;;;;;;;4.43;1.90;;;;;;;-1.00;88.52;101665.09;4963090;28;20039;-80
2021/04/25 02:27:30;;;;;;;3.40;2.00;;;;;;;-0.98;88.10;101659.97;4952318;28;20047;-81
2021/04/25 02:29:56;;;;;;;2.93;1.80;;;;;;;-1.06;88.93;101654.44;4965323;28;20050;-80
2021/04/25 02:32:22;;;;;;;3.87;2.13;;;;;;;-0.89;88.06;101658.63;4937567;28;20042;-80
2021/04/25 02:34:48;;;;;;;3.43;1.90;;;;;;;-1.00;88.06;101654.72;4933905;28;20052;-81
2021/04/25 02:37:15;;;;;;;2.77;1.93;;;;;;;-0.92;88.28;101662.81;4956904;28;20066;-81
2021/04/25 02:39:41;;;;;;;3.17;1.87;;;;;;;-0.97;88.46;101649.66;4940931;28;20511;-80
2021/04/25 02:42:07;;;;;;;4.13;1.80;;;;;;;-0.92;88.79;101644.66;4937614;28;20035;-80
2021/04/25 02:44:33;;;;;;;3.70;2.20;;;;;;;-0.93;88.50;101645.47;4947694;29;20039;-80
2021/04/25 02:47:00;;;;;;;4.30;2.10;;;;;;;-1.00;89.33;101640.88;4950054;28;20051;-79
2021/04/25 02:49:26;;;;;;;3.30;1.87;;;;;;;-0.97;90.53;101639.28;4935417;28;20047;-80
2021/04/25 02:51:52;;;;;;;3.70;1.80;;;;;;;-0.90;90.36;101635.22;4956095;28;20062;-79
2021/04/25 02:54:19;;;;;;;3.07;2.03;;;;;;;-0.83;89.78;101626.00;4967942;28;20039;-80
2021/04/25 02:56:45;;;;;;;6.30;2.20;;;;;;;-0.88;89.98;101616.31;4955622;28;20054;-79
2021/04/25 02:59:11;;;;;;;4.10;2.57;;;;;;;-0.54;88.47;101619.38;4939920;28;20416;-80
2021/04/25 03:01:37;;;;;;;3.43;2.10;;;;;;;-0.63;88.86;101628.56;4939643;28;20042;-81
2021/04/25 03:04:03;;;;;;;2.93;2.00;;;;;;;-0.80;89.46;101627.00;4953354;28;20043;-79
2021/04/25 04:12:15;;;;;;;3.65;2.30;;;;;;;-0.26;92.73;101645.59;4973563;28;20073;-85
2021/04/25 04:14:42;;;;;;;3.77;2.10;;;;;;;-0.22;91.11;101652.69;4959020;28;20051;-83
2021/04/25 04:17:08;;;;;;;3.47;2.03;;;;;;;-0.29;89.74;101640.28;4973836;28;20050;-83
2021/04/25 04:19:34;;;;;;;3.53;1.70;;;;;;;-0.23;90.12;101645.72;4959202;28;20512;-84
2021/04/25 04:22:01;;;;;;;2.97;1.60;;;;;;;-0.18;89.39;101651.06;4959838;28;20034;-85
2021/04/25 04:24:27;;;;;;;1.93;1.47;;;;;;;-0.14;88.66;101640.88;4957131;28;20063;-82
2021/04/25 04:26:53;;;;;;;4.00;1.83;;;;;;;-0.11;87.59;101648.78;4957811;28;20051;-81
2021/04/25 04:29:20;;;;;;;2.90;1.57;;;;;;;-0.02;87.86;101648.25;4958457;28;20058;-83
2021/04/25 04:31:46;;;;;;;2.53;1.63;;;;;;;0.12;87.77;101653.97;4944960;28;20089;-82
2021/04/25 04:34:12;;;;;;;5.67;1.77;;;;;;;0.22;86.31;101643.97;4941665;28;20075;-82
2021/04/25 04:36:39;;;;;;;3.47;1.43;;;;;;;0.22;86.41;101653.50;4941630;28;20055;-82
2021/04/25 04:39:05;;;;;;;2.83;1.50;;;;;;;0.16;87.26;101650.66;4960088;28;20138;-85
2021/04/25 04:41:34;;;;;;;2.50;1.50;;;;;;;0.15;87.29;101654.97;4948594;28;20034;-83
2021/04/25 04:44:00;;;;;;;3.30;1.53;;;;;;;0.15;88.31;101652.38;4961663;28;20039;-82
2021/04/25 04:46:27;;;;;;;6.43;1.60;;;;;;;0.13;87.31;101655.75;4944142;28;20042;-82
2021/04/25 04:48:53;;;;;;;3.10;1.80;;;;;;;0.41;86.31;101657.66;4961781;28;20610;-83
2021/04/25 04:51:19;;;;;;;2.37;1.77;;;;;;;0.31;86.80;101651.22;4960299;28;20047;-86
2021/04/25 04:53:46;;;;;;;2.57;1.77;;;;;;;0.39;87.26;101644.59;4942217;28;20057;-86
2021/04/25 04:56:13;;;;;;;4.47;1.70;;;;;;;0.35;86.57;101649.66;4944602;28;20073;-85
2021/04/25 04:58:40;;;;;;;2.63;1.43;;;;;;;0.53;85.93;101653.78;4944419;28;20046;-86
2021/04/25 05:01:06;;;;;;;2.80;1.70;;;;;;;0.55;84.82;101662.53;4942685;28;20058;-83
2021/04/25 05:03:32;;;;;;;4.40;2.10;;;;;;;0.57;85.75;101658.25;4943942;28;20039;-83
2021/04/25 05:05:58;;;;;;;2.63;1.53;;;;;;;0.62;86.38;101660.16;4941609;28;20062;-83
2021/04/25 05:08:24;;;;;;;4.03;1.80;;;;;;;0.59;87.12;101665.22;4956368;28;20047;-83
2021/04/25 05:10:51;;;;;;;3.43;2.03;;;;;;;0.65;87.50;101661.13;4943706;28;20047;-83
2021/04/25 05:13:17;;;;;;;3.30;2.03;;;;;;;0.75;87.27;101663.22;4958324;28;20066;-83
2021/04/25 05:15:43;;;;;;;4.20;2.13;;;;;;;0.79;87.25;101667.72;4956763;28;20047;-82
2021/04/25 05:18:10;;;;;;;2.77;1.40;;;;;;;0.82;87.42;101662.63;4942745;28;20085;-84
2021/04/25 05:20:36;;;;;;;2.77;1.60;;;;;;;1.10;84.82;101667.06;4935407;28;20074;-85
2021/04/25 05:23:02;;;;;;;1.93;1.43;;;;;;;1.19;84.58;101663.91;4938742;28;20039;-84
2021/04/25 05:25:28;;;;;;;1.97;1.50;;;;;;;1.19;85.29;101663.00;4938608;28;20070;-84
2021/04/25 05:27:55;;;;;;;3.97;1.80;;;;;;;1.23;85.11;101664.88;4972376;28;20042;-87
2021/04/25 05:30:22;;;;;;;3.00;1.40;;;;;;;1.36;85.03;101661.84;4939134;28;20046;-86
2021/04/25 05:32:48;;;;;;;1.77;1.30;;;;;;;1.25;83.96;101655.38;4957644;28;20043;-85
2021/04/25 05:35:16;;;;;;;3.97;1.63;;;;;;;1.37;85.05;101654.09;4940049;28;20055;-85
2021/04/25 05:37:42;;;;;;;5.73;2.23;;;;;;;1.39;85.39;101662.81;4940224;28;20057;-84
2021/04/25 05:40:11;;;;;;;5.37;3.10;;;;;;;1.43;85.63;101653.41;4955049;28;20556;-84
2021/04/25 05:42:38;;;;;;;6.07;2.87;;;;;;;1.66;86.28;101656.72;4966231;28;20479;-84
2021/04/25 05:45:05;;;;;;;6.70;4.60;;;;;;;1.65;85.20;101655.84;4955478;28;20042;-84
2021/04/25 05:47:31;;;;;;;5.57;3.93;;;;;;;1.70;85.41;101661.22;4952710;28;20064;-85
2021/04/25 05:49:58;;;;;;;4.83;2.10;;;;;;;1.77;85.44;101660.56;4949586;28;20525;-83
2021/04/25 05:52:24;;;;;;;3.27;1.60;;;;;;;1.93;84.63;101664.50;4941410;28;20042;-82
2021/04/25 05:54:55;;;;;;;2.17;1.70;;;;;;;1.91;84.42;101664.47;4941726;28;20234;-82
2021/04/25 05:57:21;;;;;;;4.03;2.00;;;;;;;1.91;83.98;101674.91;4957444;28;20596;-82
2021/04/25 05:59:47;;;;;;;4.50;3.00;;;;;;;1.83;84.27;101675.50;4933866;28;20077;-82
2021/04/25 06:02:14;;;;;;;10.77;7.40;;;;;;;1.91;84.32;101672.28;4938329;28;20035;-85
2021/04/25 06:04:41;;;;;;;9.73;6.30;;;;;;;1.94;82.51;101671.53;4956702;28;20118;-85
2021/04/25 06:07:08;;;;;;;8.27;4.57;;;;;;;1.92;83.49;101667.97;4937641;28;20038;-83
2021/04/25 06:09:34;;;;;;;8.30;4.90;;;;;;;1.90;84.03;101664.44;4931316;28;20464;-85
2021/04/25 06:12:05;;;;;;;6.57;5.03;;;;;;;2.07;85.04;101684.06;4940238;28;20055;-86
2021/04/25 06:14:31;;;;;;;6.20;4.10;;;;;;;2.13;83.20;101681.66;4959593;28;20496;-83
2021/04/25 06:16:57;;;;;;;4.70;3.10;;;;;;;2.09;83.44;101677.19;4972406;28;20066;-83
2021/04/25 06:19:25;;;;;;;3.60;2.40;;;;;;;2.10;84.34;101685.88;4944175;28;20166;-83
2021/04/25 06:21:51;;;;;;;2.47;1.60;;;;;;;2.03;84.50;101681.34;4945172;28;20042;-83
2021/04/25 06:24:17;;;;;;;3.43;1.90;;;;;;;2.17;84.33;101675.69;4945886;28;20500;-84
2021/04/25 06:26:44;;;;;;;2.57;1.30;;;;;;;2.20;84.80;101678.41;4945359;28;20042;-85
2021/04/25 06:29:10;;;;;;;2.50;1.53;;;;;;;2.28;83.81;101676.03;4974974;28;20050;-85
2021/04/25 06:31:36;;;;;;;3.07;1.47;;;;;;;2.48;84.23;101673.97;4944551;28;20046;-84
2021/04/25 06:34:03;;;;;;;2.77;2.10;;;;;;;2.74;85.12;101674.72;4947037;28;20058;-84
2021/04/25 06:36:30;;;;;;;4.13;1.33;;;;;;;2.99;83.99;101674.53;4945286;28;20046;-83
2021/04/25 06:38:57;;;;;;;2.00;1.20;;;;;;;3.32;81.20;101671.03;4961967;28;20129;-84
2021/04/25 06:41:23;;;;;;;2.00;1.30;;;;;;;3.36;80.42;101670.25;4950024;28;20058;-83
2021/04/25 06:43:50;;;;;;;2.60;1.20;;;;;;;3.60;80.42;101686.53;4960783;28;20043;-83
2021/04/25 06:46:18;;;;;;;4.63;1.50;;;;;;;3.75;77.55;101679.91;4952408;28;20171;-83
2021/04/25 06:48:44;;;;;;;1.60;1.10;;;;;;;3.64;76.47;101675.31;4955784;28;20266;-84
2021/04/25 06:51:10;;;;;;;2.70;1.57;;;;;;;3.61;77.60;101675.22;4958982;28;20066;-82
2021/04/25 06:53:36;;;;;;;1.73;1.27;;;;;;;3.68;76.87;101668.41;4943469;28;20054;-83
2021/04/25 06:56:04;;;;;;;2.70;1.30;;;;;;;3.73;73.73;101666.81;4957610;28;20709;-82
2021/04/25 06:58:30;;;;;;;2.30;1.10;;;;;;;3.97;74.12;101665.63;4943572;28;20050;-83
2021/04/25 07:00:56;;;;;;;1.93;0.90;;;;;;;4.10;69.22;101670.25;4939973;29;20142;-84
2021/04/25 07:03:22;;;;;;;2.03;1.10;;;;;;;4.37;65.38;101675.19;4939605;28;20101;-84
2021/04/25 07:05:49;;;;;;;2.53;1.17;;;;;;;4.60;67.89;101675.66;4942714;28;20050;-85
2021/04/25 07:08:20;;;;;;;3.30;1.13;;;;;;;4.84;69.49;101672.66;4963820;28;20053;-85
2021/04/25 07:11:25;;;;;;;2.00;1.30;;;;;;;5.21;62.57;101672.50;4975424;28;20142;-85
2021/04/25 07:13:52;;;;;;;2.17;0.90;;;;;;;5.42;61.22;101673.69;4944358;28;20500;-84
2021/04/25 07:16:19;;;;;;;0.97;0.77;;;;;;;5.61;61.56;101668.78;4941150;28;20412;-86
2021/04/25 07:18:45;;;;;;;1.07;0.73;;;;;;;5.82;59.47;101662.13;4959679;28;20133;-84
2021/04/25 07:21:11;;;;;;;1.47;0.80;;;;;;;5.87;60.34;101657.81;4953998;28;20039;-85
2021/04/25 07:23:38;;;;;;;1.63;0.93;;;;;;;6.04;56.47;101668.56;4947207;28;20047;-85
2021/04/25 07:26:05;;;;;;;1.87;0.90;;;;;;;6.18;58.14;101669.66;4955233;28;20496;-85
2021/04/25 07:28:31;;;;;;;7.90;7.03;;;;;;;6.35;59.61;101665.50;4956248;28;20047;-86
2021/04/25 07:30:58;;;;;;;3.67;1.10;;;;;;;6.29;55.86;101672.41;4942620;28;20043;-85
2021/04/25 07:33:24;;;;;;;3.03;1.43;;;;;;;6.57;59.57;101671.91;4942768;28;20049;-85
2021/04/25 07:35:50;;;;;;;1.57;0.90;;;;;;;6.93;59.49;101681.06;4938289;29;20053;-86
2021/04/25 07:38:17;;;;;;;3.57;1.03;;;;;;;7.13;51.86;101681.25;4971418;28;20428;-85
2021/04/25 07:40:43;;;;;;;1.40;0.80;;;;;;;7.01;51.40;101680.28;4954751;28;20109;-85
2021/04/25 07:43:10;;;;;;;3.27;0.90;;;;;;;7.23;53.76;101676.13;4947779;28;20046;-85
2021/04/25 07:45:36;;;;;;;1.53;1.17;;;;;;;7.03;49.81;101686.44;4928660;28;20062;-84
2021/04/25 07:48:03;;;;;;;1.40;0.90;;;;;;;7.33;51.71;101674.47;4969443;28;20207;-85
2021/04/25 07:50:30;;;;;;;2.73;0.80;;;;;;;7.56;50.76;101674.63;4922767;29;20054;-85
2021/04/25 07:52:56;;;;;;;1.10;0.70;;;;;;;8.14;51.54;101672.41;4932968;28;20046;-85
2021/04/25 07:55:26;;;;;;;1.90;0.90;;;;;;;8.49;48.29;101672.63;4952012;28;20413;-85
2021/04/25 07:57:52;;;;;;;0.70;0.60;;;;;;;8.57;47.33;101670.91;4940409;28;20054;-85
2021/04/25 08:00:19;;;;;;;1.77;0.90;;;;;;;7.95;45.18;101674.06;4931876;28;20054;-84
2021/04/25 08:02:45;;;;;;;2.47;1.03;;;;;;;8.16;45.10;101678.59;4938616;28;20046;-89
2021/04/25 08:05:11;;;;;;;1.63;0.97;;;;;;;7.90;46.48;101675.78;4956256;28;20035;-85
2021/04/25 08:07:38;;;;;;;1.70;0.90;;;;;;;8.19;47.31;101668.94;4953276;28;20047;-84
2021/04/25 08:10:06;;;;;;;1.83;0.67;;;;;;;8.20;45.35;101667.19;4963973;28;20386;-84
2021/04/25 08:12:33;;;;;;;2.30;0.83;;;;;;;8.23;44.90;101669.81;4955995;28;20090;-85
2021/04/25 08:14:59;;;;;;;1.23;0.77;;;;;;;8.43;44.99;101669.97;4939744;28;20050;-85
2021/04/25 08:17:25;;;;;;;3.27;2.97;;;;;;;8.65;44.65;101670.94;4955873;28;20074;-85
2021/04/25 08:19:51;;;;;;;1.40;0.93;;;;;;;8.72;43.24;101670.94;4939464;28;20053;-85
2021/04/25 08:22:18;;;;;;;1.25;0.90;;;;;;;9.03;40.86;101665.78;4955960;28;20050;-87
2021/04/25 08:24:44;;;;;;;1.43;1.03;;;;;;;9.12;42.34;101664.91;4932666;28;20695;-85
2021/04/25 08:27:11;;;;;;;1.63;0.97;;;;;;;9.04;40.91;101657.00;4940562;28;20054;-85
2021/04/25 08:29:37;;;;;;;1.45;1.00;;;;;;;9.05;39.92;101665.78;4939635;28;20047;-84
2021/04/25 08:32:03;;;;;;;0.88;0.88;;;;;;;9.25;41.80;101672.84;4956881;28;20066;-84
2021/04/25 08:34:31;;;;;;;0.93;0.73;;;;;;;8.93;40.81;101670.16;4954889;28;20055;-85
2021/04/25 08:36:57;;;;;;;3.03;1.00;;;;;;;8.80;41.80;101667.47;4954612;28;20038;-84
2021/04/25 08:39:23;;;;;;;2.50;0.88;;;;;;;8.81;43.39;101667.47;4954644;28;20046;-85
2021/04/25 08:41:50;;;;;;;0.77;0.77;;;;;;;9.30;42.47;101670.19;4955514;28;20039;-84
2021/04/25 08:44:20;;;;;;;1.90;1.10;;;;;;;9.17;39.69;101671.97;4955404;28;20073;-84
2021/04/25 08:46:48;;;;;;;1.35;1.05;;;;;;;9.02;39.75;101670.16;4955524;28;20050;-85
2021/04/25 08:49:22;;;;;;;2.25;0.95;;;;;;;8.73;39.76;101669.19;4961543;28;20055;-85
2021/04/25 08:51:48;;;;;;;;;;;;;;;8.95;38.35;101680.69;4955829;28;20385;-84
2021/04/25 08:54:15;;;;;;;1.95;0.70;;;;;;;9.38;41.00;101673.72;4936643;28;19930;-83
2021/04/25 08:56:42;;;;;;;2.78;0.85;;;;;;;10.00;39.58;101675.44;4942378;28;20047;-84
2021/04/25 08:59:11;;;;;;;1.88;0.85;;;;;;;10.24;38.86;101671.00;4939779;28;20047;-85
2021/04/25 09:01:41;;;;;;;1.63;0.70;;;;;;;10.39;38.43;101669.22;4956164;28;20047;-85
2021/04/25 09:04:07;;;;;;;2.05;0.90;;;;;;;10.40;39.62;101659.50;4955832;28;20049;-86
2021/04/25 09:06:33;;;;;;;0.73;0.70;;;;;;;10.17;38.72;101659.56;4937326;28;20074;-86
2021/04/25 09:09:02;;;;;;;1.80;0.75;;;;;;;10.28;38.12;101660.44;4947675;23;20027;-80
2021/04/25 09:11:40;;;;;;;1.33;0.65;;;;;;;10.41;38.55;101656.88;4998937;28;20042;-78
2021/04/25 09:14:23;;;;;;;1.48;0.50;;;;;;;10.82;40.40;101663.72;4978284;28;20434;-79
2021/04/25 09:16:53;;;;;;;1.15;0.70;;;;;;;10.60;36.63;101647.13;4959267;28;20043;-78
2021/04/25 09:19:19;;;;;;;0.70;0.63;;;;;;;10.45;36.63;101654.22;4967194;28;20110;-80
2021/04/25 09:21:59;;;;;;;1.13;0.57;;;;;;;9.93;36.76;101655.22;4991176;28;20042;-81
2021/04/25 09:24:31;;;;;;;1.70;0.63;;;;;;;9.59;37.25;101665.84;4974094;28;20052;-81
2021/04/25 09:26:58;;;;;;;1.90;0.70;;;;;;;9.85;35.73;101657.88;4958133;28;20069;-81
2021/04/25 09:29:27;;;;;;;1.38;0.50;;;;;;;10.32;36.63;101648.09;4971581;28;20054;-81
2021/04/25 09:31:54;;;;;;;1.20;0.88;;;;;;;10.99;35.64;101637.19;4972730;28;20050;-81
2021/04/25 09:34:27;;;;;;;1.52;0.95;;;;;;;11.01;32.58;101635.41;4988204;28;20084;-82
2021/04/25 09:37:10;;;;;;;0.70;0.70;;;;;;;11.19;34.28;101643.22;4966184;28;20058;-81
2021/04/25 09:39:37;;;;;;;1.38;0.60;;;;;;;10.63;32.53;101636.53;4963766;28;20081;-80
2021/04/25 09:42:04;;;;;;;1.10;0.80;;;;;;;10.65;34.80;101641.78;4954972;28;20050;-81
2021/04/25 09:44:36;;;;;;;0.50;0.50;;;;;;;10.56;35.42;101652.41;5005374;28;20049;-81
2021/04/25 09:47:05;;;;;;;1.25;0.70;;;;;;;9.80;36.06;101656.13;4957593;28;20042;-81
2021/04/25 09:49:54;;;;;;;1.25;0.70;;;;;;;9.64;36.61;101659.66;4970114;28;20546;-82
2021/04/25 09:52:26;;;;;;;1.05;0.60;;;;;;;9.13;33.91;101664.03;4988244;28;20046;-80
2021/04/25 09:55:19;;;;;;;2.13;0.93;;;;;;;8.89;34.41;101667.50;4973465;28;20046;-81
2021/04/25 09:57:50;;;;;;;1.67;1.05;;;;;;;8.67;35.25;101677.09;4956890;28;20038;-81
2021/04/25 10:00:17;;;;;;;1.15;0.70;;;;;;;8.41;34.64;101669.97;4987504;28;20042;-81
2021/04/25 10:03:11;;;;;;;1.10;0.70;;;;;;;8.94;37.35;101663.13;4989118;28;20519;-80
2021/04/25 10:05:39;;;;;;;1.20;0.80;;;;;;;9.94;35.99;101661.38;4987728;28;20054;-80
2021/04/25 10:08:06;;;;;;;6.88;0.98;;;;;;;10.93;33.28;101650.44;4956381;28;20053;-79
2021/04/25 10:10:32;;;;;;;0.80;0.65;;;;;;;11.06;29.24;101660.06;4968225;28;20046;-80
2021/04/25 10:13:00;;;;;;;0.98;0.73;;;;;;;10.35;30.94;101656.91;4973087;28;20047;-81
2021/04/25 10:15:26;;;;;;;1.27;0.70;;;;;;;10.22;33.85;101659.56;4989451;28;20051;-80
2021/04/25 10:17:56;;;;;;;0.63;0.55;;;;;;;9.75;33.34;101673.72;4987592;28;20043;-82
2021/04/25 10:20:23;;;;;;;1.05;0.55;;;;;;;9.31;35.00;101670.19;4966446;28;20518;-83
2021/04/25 10:22:50;;;;;;;0.52;0.50;;;;;;;8.76;32.67;101676.25;4973422;28;20100;-81
2021/04/25 10:25:19;;;;;;;0.98;0.52;;;;;;;8.72;33.86;101680.63;5004604;28;20046;-82
2021/04/25 10:27:56;;;;;;;2.25;0.70;;;;;;;8.76;35.73;101679.75;4987507;28;20550;-81
2021/04/25 10:30:23;;;;;;;1.38;0.80;;;;;;;8.82;35.47;101679.75;4985683;28;20034;-81
2021/04/25 10:32:54;;;;;;;1.13;0.50;;;;;;;8.83;36.12;101686.81;4963438;28;20043;-81
2021/04/25 10:35:22;;;;;;;0.47;0.38;;;;;;;8.95;35.65;101686.84;4961476;28;20101;-81
2021/04/25 10:37:49;;;;;;;1.08;0.63;;;;;;;8.68;34.08;101679.75;4966365;28;20046;-81
2021/04/25 10:40:50;;;;;;;0.80;0.60;;;;;;;9.10;35.72;101687.75;4968299;28;20054;-81
2021/04/25 10:43:18;;;;;;;1.08;0.55;;;;;;;9.23;33.74;101677.22;4978145;28;20039;-81
2021/04/25 10:45:57;;;;;;;0.93;0.50;;;;;;;9.35;33.77;101672.84;4971630;28;20054;-80
2021/04/25 10:48:31;;;;;;;0.32;0.30;;;;;;;9.55;31.24;101666.69;4987333;28;20082;-81
2021/04/25 10:51:18;;;;;;;1.15;0.43;;;;;;;9.67;29.74;101671.09;4979016;28;20049;-80
2021/04/25 10:53:46;;;;;;;1.00;0.68;;;;;;;10.29;34.59;101656.03;4968912;28;20042;-81
2021/04/25 10:56:16;;;;;;;0.20;0.20;;;;;;;10.41;29.90;101656.00;4969187;28;20504;-80
2021/04/25 10:58:45;;;;;;;1.05;0.47;;;;;;;10.79;32.10;101657.59;4989573;28;20039;-81
2021/04/25 11:01:38;;;;;;;1.33;0.47;;;;;;;11.47;33.90;101659.75;4986470;28;20044;-82
2021/04/25 11:04:05;;;;;;;1.33;0.60;;;;;;;10.88;29.56;101657.53;4989627;28;20038;-82
2021/04/25 11:06:32;;;;;;;0.75;0.57;;;;;;;11.05;29.34;101644.22;4971938;28;20398;-82
2021/04/25 11:08:58;;;;;;;0.80;0.50;;;;;;;10.69;31.26;101644.44;4991229;28;20100;-82
2021/04/25 11:11:34;;;;;;;15.20;1.67;;;;;;;10.23;32.23;101648.13;4975528;28;20538;-82
2021/04/25 11:14:01;;;;;;;1.27;0.60;;;;;;;10.03;33.63;101670.16;4990474;28;20031;-81
2021/04/25 11:16:29;;;;;;;0.75;0.50;;;;;;;10.06;34.52;101666.63;4982464;28;20047;-82
2021/04/25 11:19:03;;;;;;;1.35;0.80;;;;;;;9.85;35.17;101676.34;4984016;28;20100;-82
2021/04/25 11:21:30;;;;;;;1.05;0.55;;;;;;;9.56;33.84;101673.72;4987257;28;20046;-81
2021/04/25 11:24:03;;;;;;;2.28;0.60;;;;;;;9.67;34.90;101665.84;4973710;28;20042;-81
2021/04/25 11:26:39;;;;;;;1.75;0.50;;;;;;;9.83;34.75;101682.50;4974164;28;20065;-82
2021/04/25 11:29:13;;;;;;;0.70;0.40;;;;;;;9.72;33.56;101671.09;4969348;28;20043;-81
2021/04/25 11:31:45;;;;;;;0.55;0.55;;;;;;;9.79;35.05;101672.84;4971141;28;20441;-80
2021/04/25 11:34:36;;;;;;;4.18;0.98;;;;;;;10.03;35.57;101672.81;5003314;28;20133;-79
2021/04/25 11:37:22;;;;;;;0.85;0.52;;;;;;;10.08;33.67;101668.38;4972410;28;20046;-83
2021/04/25 11:39:54;;;;;;;16.48;1.90;;;;;;;10.91;34.51;101665.44;4987388;28;20126;-81
2021/04/25 11:42:29;;;;;;;1.95;0.77;;;;;;;11.31;34.17;101673.13;4975215;28;20054;-81
2021/04/25 11:45:00;;;;;;;1.65;0.65;;;;;;;11.74;30.66;101671.00;4972986;28;20882;-81
2021/04/25 11:47:30;;;;;;;2.35;0.60;;;;;;;11.67;28.24;101678.09;4982349;28;20046;-81
2021/04/25 11:49:57;;;;;;;0.65;0.52;;;;;;;11.91;28.02;101668.22;4971158;28;20056;-80
2021/04/25 11:52:29;;;;;;;0.63;0.40;;;;;;;12.13;27.90;101664.47;4970988;28;20050;-81
2021/04/25 11:54:55;;;;;;;0.45;0.40;;;;;;;12.06;26.54;101665.41;4972015;28;20038;-81
2021/04/25 11:57:22;;;;;;;1.17;0.50;;;;;;;12.27;29.25;101665.16;4970748;28;20109;-81
2021/04/25 12:00:25;;;;;;;1.40;0.50;;;;;;;11.51;30.50;101668.53;4978507;28;20046;-81
2021/04/25 12:03:00;;;;;;;1.70;0.50;;;;;;;11.06;33.27;101672.41;4981934;28;20050;-81
2021/04/25 12:05:35;;;;;;;0.60;0.40;;;;;;;11.04;31.54;101680.34;4984155;28;20128;-79
2021/04/25 12:08:12;;;;;;;0.85;0.50;;;;;;;10.93;33.42;101667.22;4973370;28;20483;-81
2021/04/25 12:10:43;;;;;;;1.77;0.50;;;;;;;10.52;34.74;101679.75;4985240;28;20089;-82
2021/04/25 12:13:15;;;;;;;2.65;0.82;;;;;;;10.47;33.80;101678.88;4966051;28;20049;-82
2021/04/25 12:15:56;;;;;;;1.30;0.52;;;;;;;9.79;33.01;101686.03;4979307;28;20051;-81
2021/04/25 12:18:27;;;;;;;1.83;1.00;;;;;;;10.42;31.35;101671.84;5006325;28;20447;-81
2021/04/25 12:20:58;;;;;;;1.13;0.47;;;;;;;10.70;32.50;101675.25;4986065;28;20042;-81
2021/04/25 12:23:27;;;;;;;1.90;0.50;;;;;;;10.93;29.27;101677.78;4958374;28;20038;-81
2021/04/25 12:25:55;;;;;;;0.95;0.50;;;;;;;10.99;31.93;101660.97;4972310;28;20078;-80
2021/04/25 12:28:44;;;;;;;0.77;0.43;;;;;;;11.15;33.54;101675.88;4971307;28;20078;-83
2021/04/25 12:31:12;;;;;;;1.88;0.60;;;;;;;11.01;31.68;101667.13;4972904;28;20042;-82
2021/04/25 12:34:05;;;;;;;1.23;0.52;;;;;;;10.89;31.29;101668.09;4969690;28;20053;-82
2021/04/25 12:36:32;;;;;;;0.80;0.60;;;;;;;11.31;33.02;101663.41;4970498;28;20631;-81
2021/04/25 12:39:03;;;;;;;1.45;0.40;;;;;;;11.64;33.16;101662.25;4957957;28;20142;-81
2021/04/25 12:41:44;;;;;;;1.63;0.60;;;;;;;11.63;32.33;101657.00;4992430;28;20042;-81